Chrisanthi — SX7108 — position and weather

sailwx.info

Track history (hours):
 
Tides and Currents Weather Stations Pressure Air Temp Water Temp Dewpoint Dewpoint Depression Visibility Wind Speed Wind Dir Waves Ship Positions

Chrisanthi

Last reported at 2018-Feb-24 17:58 UTC. Time now 2018-Feb-24 18:13 UTC.
Position N 37°11' E 025°46'.

Length 56 m; draft 3.9 m.

Type: Ship (hazmat cat A). MMSI: 237009100.

Date/timePositionNaut miles runAvg speedWind from/ knotsBaromVisibWave heightAir tempDewpointWater temp
2018-Feb-24 17:58N 37°11' E 025°46'1410.8
2018-Feb-24 16:42N 37°14' E 025°30'410.8
2018-Feb-24 16:18N 37°15' E 025°24'311.0
2018-Feb-24 16:00N 37°15' E 025°20'710.6
2018-Feb-24 15:22N 37°17' E 025°12'7410.3
2018-Feb-24 08:09N 37°37' E 023°42'210.3
2018-Feb-24 08:00N 37°37' E 023°40'510.3
2018-Feb-24 07:30N 37°38' E 023°34'610.2
2018-Feb-24 06:54N 37°39' E 023°26'410.2
2018-Feb-24 06:29N 37°40' E 023°21'5 9.4
2018-Feb-24 06:00N 37°43' E 023°17'510.4
2018-Feb-24 05:30N 37°47' E 023°13'510.4
2018-Feb-24 04:59N 37°52' E 023°10'5 9.4
2018-Feb-24 04:30N 37°55' E 023°05'0 0.2
2018-Feb-24 03:59N 37°55' E 023°05'0 0.0
2018-Feb-24 03:30N 37°55' E 023°05'0 0.0
2018-Feb-24 03:00N 37°55' E 023°05'0 0.0
2018-Feb-24 02:29N 37°55' E 023°05'0 0.0
2018-Feb-24 02:00N 37°55' E 023°05'0 0.0
2018-Feb-24 01:30N 37°55' E 023°05'0 0.0
2018-Feb-24 01:00N 37°55' E 023°05'0 0.0
2018-Feb-24 00:30N 37°55' E 023°05'0 0.0
2018-Feb-24 00:00N 37°55' E 023°05'0 0.0
2018-Feb-23 23:30N 37°55' E 023°05'0 0.0
2018-Feb-23 22:59N 37°55' E 023°05'0 0.0
2018-Feb-23 22:30N 37°55' E 023°05'0 0.0
2018-Feb-23 22:00N 37°55' E 023°05'0 0.0
2018-Feb-23 21:29N 37°55' E 023°05'0 0.0
2018-Feb-23 20:57N 37°55' E 023°05'0 0.0
2018-Feb-23 20:30N 37°55' E 023°05'0 0.0
2018-Feb-23 20:00N 37°55' E 023°05'0 0.0
2018-Feb-23 19:29N 37°55' E 023°05'0 0.0
2018-Feb-23 19:00N 37°55' E 023°05'0 0.0
2018-Feb-23 18:30N 37°55' E 023°05'0 0.0
2018-Feb-23 17:55N 37°55' E 023°05'0 0.0
2018-Feb-23 17:30N 37°55' E 023°05'0 0.0
2018-Feb-23 17:00N 37°55' E 023°05'0 0.0
2018-Feb-23 16:30N 37°55' E 023°05'0 0.0
2018-Feb-23 16:01N 37°55' E 023°05'0 0.0
2018-Feb-23 15:31N 37°55' E 023°05'0 0.6
2018-Feb-23 15:01N 37°55' E 023°06'510.6
2018-Feb-23 14:30N 37°51' E 023°10'510.7
2018-Feb-23 14:00N 37°47' E 023°14'610.6
2018-Feb-23 13:29N 37°42' E 023°17'510.0
2018-Feb-23 13:00N 37°39' E 023°23'510.4
2018-Feb-23 12:30N 37°38' E 023°29'710.5
2018-Feb-23 11:52N 37°35' E 023°36'6510.4
2018-Feb-23 05:39N 37°10' E 024°52'210.6
2018-Feb-23 05:30N 37°09' E 024°54'510.4
2018-Feb-23 05:00N 37°08' E 024°60'510.3
2018-Feb-23 04:31N 37°06' E 025°06'2 2.2
2018-Feb-23 03:31N 37°05' E 025°08'1 9.6
2018-Feb-23 03:27N 37°05' E 025°08'4 9.3
2018-Feb-23 03:00N 37°09' E 025°11'510.0
2018-Feb-23 02:31N 37°11' E 025°16'510.1
2018-Feb-23 02:01N 37°12' E 025°22'510.1
2018-Feb-23 01:31N 37°13' E 025°29'8 9.9
2018-Feb-23 00:44N 37°12' E 025°38'210.7
2018-Feb-23 00:31N 37°12' E 025°41'510.5
2018-Feb-23 00:01N 37°10' E 025°48'0 0.0
2018-Feb-21 02:56N 37°10' E 025°48'4 9.8
2018-Feb-21 02:30N 37°11' E 025°43'10 9.8
2018-Feb-21 01:27N 37°14' E 025°30'510.2
2018-Feb-21 01:00N 37°14' E 025°25'510.3
2018-Feb-21 00:30N 37°15' E 025°18'510.4
2018-Feb-21 00:00N 37°17' E 025°12'610.2
2018-Feb-20 23:24N 37°18' E 025°04'410.2
2018-Feb-20 23:00N 37°19' E 024°59'510.4
2018-Feb-20 22:30N 37°20' E 024°53'510.1
2018-Feb-20 22:00N 37°23' E 024°47'53 9.6
2018-Feb-20 16:31N 37°36' E 023°43'110.0
2018-Feb-20 16:26N 37°36' E 023°42'4 9.9
2018-Feb-20 16:00N 37°37' E 023°37'510.0
2018-Feb-20 15:30N 37°38' E 023°31'510.2
2018-Feb-20 15:00N 37°39' E 023°25'510.0
2018-Feb-20 14:30N 37°41' E 023°18'510.3
2018-Feb-20 14:00N 37°45' E 023°15'510.4
2018-Feb-20 13:30N 37°49' E 023°12'510.2
2018-Feb-20 13:00N 37°53' E 023°08'3 5.1
2018-Feb-20 12:30N 37°55' E 023°05'0 0.0
2018-Feb-20 12:00N 37°55' E 023°05'0 0.0
2018-Feb-20 11:29N 37°55' E 023°05'0 0.0
2018-Feb-20 11:00N 37°55' E 023°05'0 0.0
2018-Feb-20 10:30N 37°55' E 023°05'0 0.0
2018-Feb-20 10:00N 37°55' E 023°05'0 0.0
2018-Feb-20 09:30N 37°55' E 023°05'0 0.0
2018-Feb-20 09:00N 37°55' E 023°05'0 0.0
2018-Feb-20 08:30N 37°55' E 023°05'0 0.0
2018-Feb-20 08:00N 37°55' E 023°05'0 0.0
2018-Feb-20 07:30N 37°55' E 023°05'0 0.0
2018-Feb-20 07:00N 37°55' E 023°05'0 0.0
2018-Feb-20 06:30N 37°55' E 023°05'0 0.0
2018-Feb-20 06:00N 37°55' E 023°05'0 0.0
2018-Feb-20 05:30N 37°55' E 023°05'0 0.0
2018-Feb-20 05:00N 37°55' E 023°05'0 0.0
2018-Feb-20 04:30N 37°55' E 023°05'0 0.0
2018-Feb-20 04:00N 37°55' E 023°05'2 3.6
2018-Feb-20 03:30N 37°54' E 023°07'510.0
2018-Feb-20 03:00N 37°50' E 023°11'510.4
2018-Feb-20 02:30N 37°46' E 023°15'510.1
2018-Feb-20 01:59N 37°41' E 023°18'5 9.6
2018-Feb-20 01:30N 37°39' E 023°23'510.4
2018-Feb-20 01:00N 37°38' E 023°29'510.2
2018-Feb-20 00:30N 37°35' E 023°35'6610.1
2018-Feb-19 18:00N 37°10' E 024°51'510.4
2018-Feb-19 17:30N 37°09' E 024°58'5 9.8
2018-Feb-19 17:00N 37°07' E 025°03'4 8.7
2018-Feb-19 16:30N 37°06' E 025°09'0 0.0
2018-Feb-19 10:27N 37°06' E 025°09'0 0.1
2018-Feb-19 09:54N 37°06' E 025°08'0 0.0
2018-Feb-19 04:30N 37°06' E 025°08'0 0.0
2018-Feb-19 03:35N 37°06' E 025°08'0 0.0
2018-Feb-19 02:50N 37°06' E 025°08'0 0.0
2018-Feb-19 02:25N 37°06' E 025°08'0 0.0
2018-Feb-19 02:00N 37°06' E 025°08'0 0.0
2018-Feb-19 01:21N 37°06' E 025°08'0 0.1
2018-Feb-19 00:53N 37°06' E 025°08'0 0.0
2018-Feb-19 00:31N 37°06' E 025°08'0 0.0
2018-Feb-19 00:00N 37°06' E 025°08'0 0.0
2018-Feb-18 23:30N 37°06' E 025°08'0 0.0
2018-Feb-18 22:47N 37°06' E 025°08'0 0.0
2018-Feb-18 22:25N 37°06' E 025°08'0 0.0
2018-Feb-18 21:58N 37°06' E 025°08'1 1.7
2018-Feb-18 21:30N 37°06' E 025°07'5 9.9
2018-Feb-18 21:00N 37°09' E 025°12'510.0
2018-Feb-18 20:30N 37°10' E 025°18'510.3
2018-Feb-18 20:01N 37°06' E 025°22'0 0.5
2018-Feb-18 19:31N 37°06' E 025°22'0 0.0
2018-Feb-18 17:54N 37°06' E 025°22'0 0.0
2018-Feb-18 17:30N 37°06' E 025°22'0 0.0
2018-Feb-18 16:31N 37°06' E 025°22'0 0.0
2018-Feb-18 16:31N 37°06' E 025°22'1 1.1
2018-Feb-18 16:01N 37°06' E 025°22'0 0.2
2018-Feb-18 15:31N 37°06' E 025°22'1 2.6
2018-Feb-18 15:00N 37°06' E 025°20'5 9.6
2018-Feb-18 14:31N 37°01' E 025°19'  
Track history (hours):
 
Tides and Currents Weather Stations Pressure Air Temp Water Temp Dewpoint Dewpoint Depression Visibility Wind Speed Wind Dir Waves Ship Positions

Chrisanthi

Last reported at 2018-Feb-24 17:58 UTC. Time now 2018-Feb-24 18:13 UTC.
Position N 37°11' E 025°46'.

Length 56 m; draft 3.9 m.

Type: Ship (hazmat cat A). MMSI: 237009100.

Date/timePositionNaut miles runAvg speedWind from/ knotsBaromVisibWave heightAir tempDewpointWater temp
2018-Feb-24 17:58N 37°11' E 025°46'1410.8
2018-Feb-24 16:42N 37°14' E 025°30'410.8
2018-Feb-24 16:18N 37°15' E 025°24'311.0
2018-Feb-24 16:00N 37°15' E 025°20'710.6
2018-Feb-24 15:22N 37°17' E 025°12'7410.3
2018-Feb-24 08:09N 37°37' E 023°42'210.3
2018-Feb-24 08:00N 37°37' E 023°40'510.3
2018-Feb-24 07:30N 37°38' E 023°34'610.2
2018-Feb-24 06:54N 37°39' E 023°26'410.2
2018-Feb-24 06:29N 37°40' E 023°21'5 9.4
2018-Feb-24 06:00N 37°43' E 023°17'510.4
2018-Feb-24 05:30N 37°47' E 023°13'510.4
2018-Feb-24 04:59N 37°52' E 023°10'5 9.4
2018-Feb-24 04:30N 37°55' E 023°05'0 0.2
2018-Feb-24 03:59N 37°55' E 023°05'0 0.0
2018-Feb-24 03:30N 37°55' E 023°05'0 0.0
2018-Feb-24 03:00N 37°55' E 023°05'0 0.0
2018-Feb-24 02:29N 37°55' E 023°05'0 0.0
2018-Feb-24 02:00N 37°55' E 023°05'0 0.0
2018-Feb-24 01:30N 37°55' E 023°05'0 0.0
2018-Feb-24 01:00N 37°55' E 023°05'0 0.0
2018-Feb-24 00:30N 37°55' E 023°05'0 0.0
2018-Feb-24 00:00N 37°55' E 023°05'0 0.0
2018-Feb-23 23:30N 37°55' E 023°05'0 0.0
2018-Feb-23 22:59N 37°55' E 023°05'0 0.0
2018-Feb-23 22:30N 37°55' E 023°05'0 0.0
2018-Feb-23 22:00N 37°55' E 023°05'0 0.0
2018-Feb-23 21:29N 37°55' E 023°05'0 0.0
2018-Feb-23 20:57N 37°55' E 023°05'0 0.0
2018-Feb-23 20:30N 37°55' E 023°05'0 0.0
2018-Feb-23 20:00N 37°55' E 023°05'0 0.0
2018-Feb-23 19:29N 37°55' E 023°05'0 0.0
2018-Feb-23 19:00N 37°55' E 023°05'0 0.0
2018-Feb-23 18:30N 37°55' E 023°05'0 0.0
2018-Feb-23 17:55N 37°55' E 023°05'0 0.0
2018-Feb-23 17:30N 37°55' E 023°05'0 0.0
2018-Feb-23 17:00N 37°55' E 023°05'0 0.0
2018-Feb-23 16:30N 37°55' E 023°05'0 0.0
2018-Feb-23 16:01N 37°55' E 023°05'0 0.0
2018-Feb-23 15:31N 37°55' E 023°05'0 0.6
2018-Feb-23 15:01N 37°55' E 023°06'510.6
2018-Feb-23 14:30N 37°51' E 023°10'510.7
2018-Feb-23 14:00N 37°47' E 023°14'610.6
2018-Feb-23 13:29N 37°42' E 023°17'510.0
2018-Feb-23 13:00N 37°39' E 023°23'510.4
2018-Feb-23 12:30N 37°38' E 023°29'710.5
2018-Feb-23 11:52N 37°35' E 023°36'6510.4
2018-Feb-23 05:39N 37°10' E 024°52'210.6
2018-Feb-23 05:30N 37°09' E 024°54'510.4
2018-Feb-23 05:00N 37°08' E 024°60'510.3
2018-Feb-23 04:31N 37°06' E 025°06'2 2.2
2018-Feb-23 03:31N 37°05' E 025°08'1 9.6
2018-Feb-23 03:27N 37°05' E 025°08'4 9.3
2018-Feb-23 03:00N 37°09' E 025°11'510.0
2018-Feb-23 02:31N 37°11' E 025°16'510.1
2018-Feb-23 02:01N 37°12' E 025°22'510.1
2018-Feb-23 01:31N 37°13' E 025°29'8 9.9
2018-Feb-23 00:44N 37°12' E 025°38'210.7
2018-Feb-23 00:31N 37°12' E 025°41'510.5
2018-Feb-23 00:01N 37°10' E 025°48'0 0.0
2018-Feb-21 02:56N 37°10' E 025°48'4 9.8
2018-Feb-21 02:30N 37°11' E 025°43'10 9.8
2018-Feb-21 01:27N 37°14' E 025°30'510.2
2018-Feb-21 01:00N 37°14' E 025°25'510.3
2018-Feb-21 00:30N 37°15' E 025°18'510.4
2018-Feb-21 00:00N 37°17' E 025°12'610.2
2018-Feb-20 23:24N 37°18' E 025°04'410.2
2018-Feb-20 23:00N 37°19' E 024°59'510.4
2018-Feb-20 22:30N 37°20' E 024°53'510.1
2018-Feb-20 22:00N 37°23' E 024°47'53 9.6
2018-Feb-20 16:31N 37°36' E 023°43'110.0
2018-Feb-20 16:26N 37°36' E 023°42'4 9.9
2018-Feb-20 16:00N 37°37' E 023°37'510.0
2018-Feb-20 15:30N 37°38' E 023°31'510.2
2018-Feb-20 15:00N 37°39' E 023°25'510.0
2018-Feb-20 14:30N 37°41' E 023°18'510.3
2018-Feb-20 14:00N 37°45' E 023°15'510.4
2018-Feb-20 13:30N 37°49' E 023°12'510.2
2018-Feb-20 13:00N 37°53' E 023°08'3 5.1
2018-Feb-20 12:30N 37°55' E 023°05'0 0.0
2018-Feb-20 12:00N 37°55' E 023°05'0 0.0
2018-Feb-20 11:29N 37°55' E 023°05'0 0.0
2018-Feb-20 11:00N 37°55' E 023°05'0 0.0
2018-Feb-20 10:30N 37°55' E 023°05'0 0.0
2018-Feb-20 10:00N 37°55' E 023°05'0 0.0
2018-Feb-20 09:30N 37°55' E 023°05'0 0.0
2018-Feb-20 09:00N 37°55' E 023°05'0 0.0
2018-Feb-20 08:30N 37°55' E 023°05'0 0.0
2018-Feb-20 08:00N 37°55' E 023°05'0 0.0
2018-Feb-20 07:30N 37°55' E 023°05'0 0.0
2018-Feb-20 07:00N 37°55' E 023°05'0 0.0
2018-Feb-20 06:30N 37°55' E 023°05'0 0.0
2018-Feb-20 06:00N 37°55' E 023°05'0 0.0
2018-Feb-20 05:30N 37°55' E 023°05'0 0.0
2018-Feb-20 05:00N 37°55' E 023°05'0 0.0
2018-Feb-20 04:30N 37°55' E 023°05'0 0.0
2018-Feb-20 04:00N 37°55' E 023°05'2 3.6
2018-Feb-20 03:30N 37°54' E 023°07'510.0
2018-Feb-20 03:00N 37°50' E 023°11'510.4
2018-Feb-20 02:30N 37°46' E 023°15'510.1
2018-Feb-20 01:59N 37°41' E 023°18'5 9.6
2018-Feb-20 01:30N 37°39' E 023°23'510.4
2018-Feb-20 01:00N 37°38' E 023°29'510.2
2018-Feb-20 00:30N 37°35' E 023°35'6610.1
2018-Feb-19 18:00N 37°10' E 024°51'510.4
2018-Feb-19 17:30N 37°09' E 024°58'5 9.8
2018-Feb-19 17:00N 37°07' E 025°03'4 8.7
2018-Feb-19 16:30N 37°06' E 025°09'0 0.0
2018-Feb-19 10:27N 37°06' E 025°09'0 0.1
2018-Feb-19 09:54N 37°06' E 025°08'0 0.0
2018-Feb-19 04:30N 37°06' E 025°08'0 0.0
2018-Feb-19 03:35N 37°06' E 025°08'0 0.0
2018-Feb-19 02:50N 37°06' E 025°08'0 0.0
2018-Feb-19 02:25N 37°06' E 025°08'0 0.0
2018-Feb-19 02:00N 37°06' E 025°08'0 0.0
2018-Feb-19 01:21N 37°06' E 025°08'0 0.1
2018-Feb-19 00:53N 37°06' E 025°08'0 0.0
2018-Feb-19 00:31N 37°06' E 025°08'0 0.0
2018-Feb-19 00:00N 37°06' E 025°08'0 0.0
2018-Feb-18 23:30N 37°06' E 025°08'0 0.0
2018-Feb-18 22:47N 37°06' E 025°08'0 0.0
2018-Feb-18 22:25N 37°06' E 025°08'0 0.0
2018-Feb-18 21:58N 37°06' E 025°08'1 1.7
2018-Feb-18 21:30N 37°06' E 025°07'5 9.9
2018-Feb-18 21:00N 37°09' E 025°12'510.0
2018-Feb-18 20:30N 37°10' E 025°18'510.3
2018-Feb-18 20:01N 37°06' E 025°22'0 0.5
2018-Feb-18 19:31N 37°06' E 025°22'0 0.0
2018-Feb-18 17:54N 37°06' E 025°22'0 0.0
2018-Feb-18 17:30N 37°06' E 025°22'0 0.0
2018-Feb-18 16:31N 37°06' E 025°22'0 0.0
2018-Feb-18 16:31N 37°06' E 025°22'1 1.1
2018-Feb-18 16:01N 37°06' E 025°22'0 0.2
2018-Feb-18 15:31N 37°06' E 025°22'1 2.6
2018-Feb-18 15:00N 37°06' E 025°20'5 9.6
2018-Feb-18 14:31N 37°01' E 025°19'  

Dump ship's entire track history